createdAt,value
2019-03-05T00:01:33.546Z,90.50
2019-03-05T00:04:01.766Z,90.40
2019-03-05T00:06:30.155Z,90.50
2019-03-05T00:08:58.374Z,90.30
2019-03-05T00:11:26.732Z,90.10
2019-03-05T00:13:54.841Z,90.20
2019-03-05T00:16:23.967Z,89.60
2019-03-05T00:18:52.539Z,88.80
2019-03-05T00:21:20.691Z,87.70
2019-03-05T00:23:50.554Z,87.10
2019-03-05T00:26:21.838Z,86.90
2019-03-05T00:29:40.128Z,86.60
2019-03-05T00:32:08.818Z,86.60
2019-03-05T00:34:52.366Z,87.00
2019-03-05T00:37:46.310Z,87.40
2019-03-05T00:40:55.138Z,87.70
2019-03-05T00:43:36.226Z,87.20
2019-03-05T00:46:50.177Z,86.80
2019-03-05T00:49:50.418Z,86.70
2019-03-05T00:53:09.330Z,86.40
2019-03-05T00:56:07.467Z,86.40
2019-03-05T00:58:52.978Z,87.10
2019-03-05T01:01:55.141Z,88.50
2019-03-05T01:05:12.787Z,88.60
2019-03-05T01:07:41.014Z,89.10
2019-03-05T01:10:11.097Z,88.70
2019-03-05T01:12:40.035Z,90.00
2019-03-05T01:15:08.826Z,90.50
2019-03-05T01:17:37.124Z,90.20
2019-03-05T01:20:09.707Z,89.90
2019-03-05T01:22:37.817Z,90.00
2019-03-05T01:25:06.464Z,90.40
2019-03-05T01:27:34.694Z,90.20
2019-03-05T01:30:04.294Z,90.30
2019-03-05T01:32:49.588Z,90.50
2019-03-05T01:35:35.825Z,90.40
2019-03-05T01:38:04.050Z,90.50
2019-03-05T01:40:34.660Z,90.50
2019-03-05T01:43:03.162Z,90.70
2019-03-05T01:45:31.446Z,90.90
2019-03-05T01:47:59.774Z,90.80
2019-03-05T01:50:28.028Z,90.80
2019-03-05T01:52:58.585Z,90.80
2019-03-05T01:55:26.878Z,91.40
2019-03-05T01:57:55.481Z,91.70
2019-03-05T02:00:23.873Z,92.30
2019-03-05T02:02:52.276Z,92.50
2019-03-05T02:05:20.931Z,92.50
2019-03-05T02:07:49.328Z,92.60
2019-03-05T02:10:20.269Z,92.80
2019-03-05T02:12:48.593Z,93.10
2019-03-05T02:15:17.052Z,93.20
2019-03-05T02:17:45.526Z,94.10
2019-03-05T02:20:17.280Z,95.20
2019-03-05T02:23:00.978Z,95.50
2019-03-05T02:25:56.983Z,95.80
2019-03-05T02:29:06.841Z,96.20
2019-03-05T02:32:17.995Z,96.60
2019-03-05T02:35:27.684Z,97.10
2019-03-05T02:38:31.041Z,97.50
2019-03-05T02:41:23.531Z,97.10
2019-03-05T02:44:21.750Z,97.40
2019-03-05T02:47:09.006Z,97.10
2019-03-05T02:50:27.223Z,96.90
2019-03-05T02:53:40.110Z,97.00
2019-03-05T02:56:55.856Z,97.10
2019-03-05T02:59:24.297Z,97.20
2019-03-05T03:02:17.672Z,96.90
2019-03-05T03:04:49.088Z,97.20
2019-03-05T03:07:17.182Z,97.30
2019-03-05T03:10:18.131Z,97.70
2019-03-05T03:12:46.741Z,98.00
2019-03-05T03:15:18.958Z,98.40
2019-03-05T03:17:48.195Z,98.50
2019-03-05T03:20:17.887Z,98.70
2019-03-05T03:22:46.097Z,98.90
2019-03-05T03:25:18.868Z,98.90
2019-03-05T03:27:47.109Z,99.00
2019-03-05T03:30:17.053Z,99.00
2019-03-05T03:32:45.381Z,98.90
2019-03-05T03:35:14.444Z,98.80
2019-03-05T03:37:43.641Z,98.80
2019-03-05T03:40:14.342Z,98.80
2019-03-05T03:42:43.132Z,98.90
2019-03-05T03:45:16.330Z,98.80
2019-03-05T03:47:44.639Z,98.90
2019-03-05T03:50:13.800Z,98.90
2019-03-05T03:52:42.112Z,99.00
2019-03-05T03:55:11.719Z,99.10
2019-03-05T03:57:40.467Z,99.30
2019-03-05T04:00:14.691Z,99.50
2019-03-05T04:02:43.025Z,99.30
2019-03-05T04:05:11.219Z,99.30
2019-03-05T04:07:39.490Z,99.90
2019-03-05T04:10:08.100Z,99.90
2019-03-05T04:12:36.284Z,99.90
2019-03-05T04:15:05.011Z,99.90
2019-03-05T04:17:33.661Z,99.80
2019-03-05T04:20:02.033Z,99.90
2019-03-05T04:22:30.202Z,99.90
2019-03-05T04:24:58.303Z,99.90
2019-03-05T04:27:26.482Z,99.90
2019-03-05T04:29:55.012Z,99.90
2019-03-05T04:32:23.917Z,99.90
2019-03-05T04:34:52.485Z,99.90
2019-03-05T04:37:21.028Z,99.90
2019-03-05T04:39:49.253Z,99.90
2019-03-05T04:42:17.411Z,99.90
2019-03-05T04:44:53.525Z,99.90
2019-03-05T04:47:22.106Z,99.90
2019-03-05T04:50:09.757Z,99.90
2019-03-05T04:52:38.279Z,99.90
2019-03-05T04:55:07.327Z,99.90
2019-03-05T04:57:35.487Z,99.90
2019-03-05T05:00:08.543Z,99.90
2019-03-05T05:02:36.690Z,99.90
2019-03-05T05:05:05.237Z,99.90
2019-03-05T05:07:33.406Z,99.90
2019-03-05T05:10:01.512Z,99.90
2019-03-05T05:12:29.673Z,99.90
2019-03-05T05:14:57.831Z,99.90
2019-03-05T05:17:26.084Z,99.90
2019-03-05T05:19:54.262Z,99.90
2019-03-05T05:22:22.427Z,99.90
2019-03-05T05:24:50.534Z,99.90
2019-03-05T05:27:20.421Z,99.90
2019-03-05T05:29:48.506Z,99.90
2019-03-05T05:32:17.142Z,99.90
2019-03-05T05:34:45.242Z,99.90
2019-03-05T05:37:13.882Z,99.90
2019-03-05T05:40:20.439Z,99.90
2019-03-05T05:42:48.655Z,99.90
2019-03-05T05:45:19.249Z,99.90
2019-03-05T05:47:47.471Z,99.90
2019-03-05T05:50:15.870Z,99.90
2019-03-05T05:52:44.417Z,99.90
2019-03-05T05:55:12.752Z,99.90
2019-03-05T05:57:41.250Z,99.90
2019-03-05T06:00:12.044Z,99.90
2019-03-05T06:02:40.416Z,99.90
2019-03-05T06:05:08.847Z,99.90
2019-03-05T06:07:37.055Z,99.90
2019-03-05T06:10:06.006Z,99.90
2019-03-05T06:12:34.118Z,99.90
2019-03-05T06:15:02.238Z,99.90
2019-03-05T06:17:30.392Z,99.90
2019-03-05T06:19:58.650Z,99.90
2019-03-05T06:22:26.829Z,99.90
2019-03-05T06:24:54.987Z,99.90
2019-03-05T06:27:23.103Z,99.90
2019-03-05T06:29:51.254Z,99.90
2019-03-05T06:32:19.371Z,99.90
2019-03-05T06:34:47.630Z,99.90
2019-03-05T06:37:15.724Z,99.90
2019-03-05T06:39:43.893Z,99.90
2019-03-05T06:42:12.360Z,99.90
2019-03-05T06:44:41.096Z,99.90
2019-03-05T06:47:09.189Z,99.90
2019-03-05T06:49:37.342Z,99.90
2019-03-05T06:52:05.445Z,99.90
2019-03-05T06:54:33.604Z,99.90
2019-03-05T06:57:01.704Z,99.90
2019-03-05T06:59:29.855Z,99.90
2019-03-05T07:01:57.954Z,99.90
2019-03-05T07:04:26.265Z,99.90
2019-03-05T07:06:58.741Z,99.90
2019-03-05T07:10:07.165Z,99.90
2019-03-05T07:13:12.923Z,99.90
2019-03-05T07:16:15.420Z,99.90
2019-03-05T07:19:05.376Z,99.90
2019-03-05T07:22:13.392Z,99.90
2019-03-05T07:24:46.636Z,99.90
2019-03-05T07:27:23.467Z,99.90
2019-03-05T07:29:52.112Z,99.90
2019-03-05T07:32:20.370Z,99.90
2019-03-05T07:34:49.551Z,99.90
2019-03-05T07:37:17.706Z,99.90
2019-03-05T07:39:45.806Z,99.90
2019-03-05T07:42:13.973Z,99.90
2019-03-05T07:44:42.074Z,99.90
2019-03-05T07:47:10.325Z,99.90
2019-03-05T07:49:43.795Z,99.90
2019-03-05T07:52:08.576Z,99.90
2019-03-05T07:54:36.678Z,99.90
2019-03-05T07:57:05.114Z,99.90
2019-03-05T07:59:33.233Z,99.90
2019-03-05T08:02:01.503Z,99.90
2019-03-05T08:04:29.633Z,99.90
2019-03-05T08:06:57.800Z,99.90
2019-03-05T08:09:36.490Z,99.90
2019-03-05T08:12:12.723Z,99.90
2019-03-05T08:15:05.981Z,99.90
2019-03-05T08:17:34.133Z,99.90
2019-03-05T08:20:02.511Z,99.90
2019-03-05T08:22:31.001Z,99.90
2019-03-05T08:24:59.145Z,99.90
2019-03-05T08:27:27.424Z,99.90
2019-03-05T08:29:55.658Z,99.90
2019-03-05T08:32:24.129Z,99.60
2019-03-05T08:34:52.246Z,99.30
2019-03-05T08:37:20.594Z,99.50
2019-03-05T08:39:49.103Z,98.00
2019-03-05T08:42:17.601Z,97.70
2019-03-05T08:44:50.286Z,96.20
2019-03-05T08:47:16.938Z,96.40
2019-03-05T08:49:45.657Z,95.50
2019-03-05T08:52:18.476Z,94.90
2019-03-05T08:54:46.606Z,94.30
2019-03-05T08:57:14.782Z,93.40
2019-03-05T08:59:43.385Z,91.90
2019-03-05T09:02:11.782Z,90.80
2019-03-05T09:04:44.375Z,90.60
2019-03-05T09:07:15.463Z,87.10
2019-03-05T09:09:45.318Z,87.70
2019-03-05T09:12:13.703Z,86.90
2019-03-05T09:14:43.433Z,85.40
2019-03-05T09:17:12.623Z,84.80
2019-03-05T09:19:40.929Z,83.20
2019-03-05T09:22:09.591Z,81.80
2019-03-05T09:24:41.057Z,81.90
2019-03-05T09:27:09.614Z,81.80
2019-03-05T09:29:37.779Z,82.20
2019-03-05T09:32:05.981Z,81.80
2019-03-05T09:34:34.253Z,81.70
2019-03-05T09:37:02.369Z,80.40
2019-03-05T09:39:30.550Z,78.80
2019-03-05T09:41:58.756Z,78.90
2019-03-05T09:44:27.033Z,77.30
2019-03-05T09:46:55.634Z,77.10
2019-03-05T09:49:23.950Z,76.00
2019-03-05T09:51:52.522Z,74.50
2019-03-05T09:54:21.835Z,73.70
2019-03-05T09:56:50.057Z,73.50
2019-03-05T09:59:18.229Z,73.30
2019-03-05T10:01:50.894Z,74.40
2019-03-05T10:04:19.112Z,74.70
2019-03-05T10:06:47.350Z,74.20
2019-03-05T10:09:15.814Z,74.90
2019-03-05T10:11:44.347Z,72.30
2019-03-05T10:14:12.593Z,73.30
2019-03-05T10:16:40.913Z,74.00
2019-03-05T10:19:09.871Z,75.30
2019-03-05T10:21:45.911Z,75.00
2019-03-05T10:24:10.647Z,74.60
2019-03-05T10:26:38.946Z,73.20
2019-03-05T10:29:07.315Z,72.90
2019-03-05T10:31:35.954Z,72.80
2019-03-05T10:34:08.125Z,73.50
2019-03-05T10:36:38.395Z,73.20
2019-03-05T10:39:29.995Z,73.50
2019-03-05T10:41:52.925Z,71.20
2019-03-05T10:44:21.396Z,71.10
2019-03-05T10:46:49.768Z,70.00
2019-03-05T10:49:18.288Z,68.80
2019-03-05T10:51:47.055Z,68.00
2019-03-05T10:54:15.408Z,68.10
2019-03-05T10:56:43.611Z,67.30
2019-03-05T10:59:11.955Z,67.80
2019-03-05T11:01:41.381Z,66.40
2019-03-05T11:04:09.769Z,66.80
2019-03-05T11:06:37.982Z,65.80
2019-03-05T11:09:07.279Z,65.40
2019-03-05T11:11:35.747Z,65.40
2019-03-05T11:14:04.231Z,64.80
2019-03-05T11:16:32.475Z,63.60
2019-03-05T11:19:00.666Z,61.70
2019-03-05T11:21:28.851Z,60.60
2019-03-05T11:23:56.972Z,60.90
2019-03-05T11:26:25.635Z,61.70
2019-03-05T11:28:54.781Z,61.90
2019-03-05T11:31:23.031Z,61.10
2019-03-05T11:33:51.230Z,59.30
2019-03-05T11:36:19.604Z,59.70
2019-03-05T11:38:48.386Z,60.80
2019-03-05T11:41:17.493Z,60.40
2019-03-05T11:43:45.607Z,60.70
2019-03-05T11:46:16.813Z,61.40
2019-03-05T11:48:45.139Z,59.70
2019-03-05T11:51:13.431Z,58.80
2019-03-05T11:53:41.554Z,59.00
2019-03-05T11:56:10.154Z,58.50
2019-03-05T11:58:38.261Z,58.60
2019-03-05T12:01:19.946Z,58.70
2019-03-05T12:03:48.177Z,57.90
2019-03-05T12:06:16.370Z,58.00
2019-03-05T12:08:44.578Z,58.00
2019-03-05T12:11:13.336Z,58.90
2019-03-05T12:13:41.453Z,59.20
2019-03-05T12:16:12.562Z,60.20
2019-03-05T12:18:40.784Z,59.60
2019-03-05T12:21:09.153Z,58.90
2019-03-05T12:23:37.454Z,59.50
2019-03-05T12:26:05.898Z,59.20
2019-03-05T12:28:33.994Z,58.80
2019-03-05T12:31:02.286Z,57.90
2019-03-05T12:33:30.455Z,57.80
2019-03-05T12:35:58.823Z,57.60
2019-03-05T12:38:27.383Z,57.50
2019-03-05T12:40:55.724Z,57.00
2019-03-05T12:43:23.823Z,56.20
2019-03-05T12:45:52.106Z,56.20
2019-03-05T12:48:20.208Z,56.50
2019-03-05T12:50:48.583Z,56.20
2019-03-05T12:53:17.792Z,56.20
2019-03-05T12:55:46.603Z,55.70
2019-03-05T12:58:14.922Z,55.80
2019-03-05T13:00:43.691Z,55.40
2019-03-05T13:03:11.996Z,55.10
2019-03-05T13:05:40.290Z,55.50
2019-03-05T13:08:08.446Z,56.70
2019-03-05T13:10:37.617Z,58.00
2019-03-05T13:13:06.210Z,59.50
2019-03-05T13:15:34.874Z,59.40
2019-03-05T13:18:03.732Z,60.90
2019-03-05T13:20:31.996Z,62.70
2019-03-05T13:23:00.226Z,64.30
2019-03-05T13:25:29.796Z,64.10
2019-03-05T13:28:02.313Z,64.40
2019-03-05T13:30:28.368Z,65.40
2019-03-05T13:32:58.999Z,64.70
2019-03-05T13:35:30.234Z,64.50
2019-03-05T13:37:58.730Z,63.70
2019-03-05T13:40:30.160Z,63.50
2019-03-05T13:42:59.735Z,63.40
2019-03-05T13:45:28.379Z,63.90
2019-03-05T13:48:09.437Z,63.80
2019-03-05T13:50:55.491Z,62.90
2019-03-05T13:54:11.341Z,62.70
2019-03-05T13:57:11.367Z,62.30
2019-03-05T13:59:47.346Z,62.00
2019-03-05T14:02:20.478Z,62.10
2019-03-05T14:05:10.835Z,61.90
2019-03-05T14:08:30.516Z,61.40
2019-03-05T14:10:58.814Z,60.60
2019-03-05T14:13:27.258Z,61.80
2019-03-05T14:15:59.507Z,62.10
2019-03-05T14:18:27.788Z,62.00
2019-03-05T14:20:58.944Z,63.60
2019-03-05T14:23:27.508Z,64.10
2019-03-05T14:25:55.679Z,65.20
2019-03-05T14:28:24.765Z,65.90
2019-03-05T14:30:53.070Z,66.10
2019-03-05T14:33:43.105Z,66.80
2019-03-05T14:36:11.293Z,67.10
2019-03-05T14:38:39.725Z,67.20
2019-03-05T14:41:16.973Z,67.10
2019-03-05T14:43:46.384Z,67.80
2019-03-05T14:46:14.871Z,68.30
2019-03-05T14:48:44.188Z,69.10
2019-03-05T14:51:13.849Z,69.40
2019-03-05T14:53:45.231Z,69.90
2019-03-05T14:56:20.783Z,70.60
2019-03-05T14:58:51.204Z,71.20
2019-03-05T15:01:22.312Z,71.90
2019-03-05T15:03:50.574Z,73.20
2019-03-05T15:06:18.888Z,72.70
2019-03-05T15:08:52.195Z,72.10
2019-03-05T15:11:20.560Z,72.90
2019-03-05T15:13:54.328Z,72.10
2019-03-05T15:16:25.016Z,71.60
2019-03-05T15:18:59.951Z,70.90
2019-03-05T15:21:49.580Z,70.70
2019-03-05T15:24:22.160Z,71.30
2019-03-05T15:27:05.154Z,71.80
2019-03-05T15:29:33.956Z,72.10
2019-03-05T15:32:12.155Z,71.80
2019-03-05T15:34:49.808Z,70.80
2019-03-05T15:37:20.212Z,70.60
2019-03-05T15:40:04.677Z,70.60
2019-03-05T15:42:32.868Z,69.50
2019-03-05T15:45:24.405Z,68.90
2019-03-05T15:47:57.167Z,67.80
2019-03-05T15:50:32.528Z,64.90
2019-03-05T15:53:01.519Z,63.60
2019-03-05T15:55:33.346Z,62.50
2019-03-05T15:58:05.406Z,62.20
2019-03-05T16:00:44.562Z,62.80
2019-03-05T16:03:16.904Z,63.10
2019-03-05T16:05:53.777Z,62.90
2019-03-05T16:08:20.984Z,63.40
2019-03-05T16:10:58.753Z,64.20
2019-03-05T16:13:28.549Z,65.60
2019-03-05T16:15:57.166Z,65.30
2019-03-05T16:18:29.622Z,64.80
2019-03-05T16:20:58.253Z,63.20
2019-03-05T16:23:40.656Z,62.20
2019-03-05T16:26:11.330Z,61.40
2019-03-05T16:28:45.087Z,61.00
2019-03-05T16:31:30.162Z,60.90
2019-03-05T16:34:21.159Z,61.20
2019-03-05T16:37:08.206Z,61.50
2019-03-05T16:40:05.213Z,61.30
2019-03-05T16:43:05.511Z,61.20
2019-03-05T16:45:54.611Z,61.10
2019-03-05T16:48:52.790Z,61.50
2019-03-05T16:51:46.807Z,61.40
2019-03-05T16:54:35.249Z,61.30
2019-03-05T16:57:20.159Z,61.00
2019-03-05T17:00:09.823Z,61.10
2019-03-05T17:03:01.055Z,62.50
2019-03-05T17:05:45.144Z,62.30
2019-03-05T17:08:27.885Z,62.70
2019-03-05T17:11:20.342Z,62.70
2019-03-05T17:13:50.830Z,62.60
2019-03-05T17:16:24.110Z,63.00
2019-03-05T17:18:54.088Z,63.60
2019-03-05T17:21:27.763Z,63.90
2019-03-05T17:23:54.704Z,64.30
2019-03-05T17:26:47.874Z,64.70
2019-03-05T17:29:16.903Z,65.50
2019-03-05T17:31:46.164Z,66.20
2019-03-05T17:34:14.682Z,66.90
2019-03-05T17:36:42.993Z,67.60
2019-03-05T17:39:22.094Z,68.00
2019-03-05T17:41:50.731Z,68.50
2019-03-05T17:44:20.252Z,69.00
2019-03-05T17:46:48.537Z,69.40
2019-03-05T17:49:16.962Z,70.00
2019-03-05T17:51:49.133Z,70.90
2019-03-05T17:54:21.119Z,71.10
2019-03-05T17:56:49.325Z,71.60
2019-03-05T17:59:23.235Z,72.10
2019-03-05T18:02:03.331Z,72.50
2019-03-05T18:04:34.927Z,73.00
2019-03-05T18:07:09.954Z,74.00
2019-03-05T18:09:38.107Z,75.20
2019-03-05T18:12:15.075Z,75.20
2019-03-05T18:14:47.858Z,75.40
2019-03-05T18:17:16.605Z,75.90
2019-03-05T18:19:45.803Z,76.20
2019-03-05T18:22:14.784Z,76.80
2019-03-05T18:24:50.503Z,77.30
2019-03-05T18:27:23.408Z,78.20
2019-03-05T18:29:53.609Z,78.70
2019-03-05T18:32:29.411Z,79.30
2019-03-05T18:35:01.627Z,79.70
2019-03-05T18:37:39.381Z,80.60
2019-03-05T18:40:10.434Z,81.30
2019-03-05T18:42:40.806Z,81.10
2019-03-05T18:45:17.497Z,80.90
2019-03-05T18:47:46.303Z,81.20
2019-03-05T18:50:17.959Z,81.40
2019-03-05T18:52:48.838Z,82.00
2019-03-05T18:55:20.895Z,82.70
2019-03-05T18:57:52.635Z,83.80
2019-03-05T19:00:24.464Z,84.20
2019-03-05T19:03:13.706Z,84.70
2019-03-05T19:05:41.982Z,85.30
2019-03-05T19:08:10.773Z,86.30
2019-03-05T19:10:40.353Z,86.90
2019-03-05T19:13:08.656Z,87.30
2019-03-05T19:15:37.032Z,87.60
2019-03-05T19:18:06.034Z,87.70
2019-03-05T19:20:34.698Z,88.00
2019-03-05T19:23:03.096Z,88.60
2019-03-05T19:25:34.750Z,88.80
2019-03-05T19:28:03.251Z,89.20
2019-03-05T19:30:34.092Z,89.90
2019-03-05T19:33:02.414Z,90.10
2019-03-05T19:35:34.717Z,90.60
2019-03-05T19:38:04.262Z,91.30
2019-03-05T19:40:34.208Z,91.50
2019-03-05T19:43:03.839Z,91.90
2019-03-05T19:45:36.060Z,92.30
2019-03-05T19:48:04.646Z,92.80
2019-03-05T19:50:35.204Z,92.80
2019-03-05T19:53:06.514Z,93.10
2019-03-05T19:55:48.160Z,93.60
2019-03-05T19:58:21.258Z,94.30
2019-03-05T20:01:11.953Z,94.50
2019-03-05T20:03:40.837Z,94.60
2019-03-05T20:06:11.473Z,95.00
2019-03-05T20:08:43.988Z,95.50
2019-03-05T20:11:21.079Z,95.70
2019-03-05T20:13:57.249Z,96.30
2019-03-05T20:16:25.934Z,96.30
2019-03-05T20:18:55.796Z,96.80
2019-03-05T20:21:24.015Z,96.80
2019-03-05T20:23:52.531Z,97.00
2019-03-05T20:26:28.168Z,97.30
2019-03-05T20:28:57.848Z,97.50
2019-03-05T20:31:28.894Z,98.10
2019-03-05T20:33:58.015Z,98.90
2019-03-05T20:36:27.636Z,99.40
2019-03-05T20:38:55.858Z,99.70
2019-03-05T20:41:24.005Z,99.90
2019-03-05T20:43:52.328Z,99.90
2019-03-05T20:46:28.607Z,99.90
2019-03-05T20:49:02.607Z,99.90
2019-03-05T20:51:30.778Z,99.90
2019-03-05T20:53:58.907Z,99.90
2019-03-05T20:56:27.286Z,99.90
2019-03-05T20:58:55.686Z,99.90
2019-03-05T21:01:25.026Z,99.90
2019-03-05T21:04:01.508Z,99.90
2019-03-05T21:06:29.662Z,99.90
2019-03-05T21:09:06.222Z,99.90
2019-03-05T21:11:34.382Z,99.90
2019-03-05T21:14:02.695Z,99.90
2019-03-05T21:16:31.868Z,99.90
2019-03-05T21:19:00.330Z,99.90
2019-03-05T21:21:29.150Z,99.90
2019-03-05T21:23:57.444Z,99.90
2019-03-05T21:26:26.067Z,99.90
2019-03-05T21:28:54.685Z,99.90
2019-03-05T21:31:26.543Z,99.90
2019-03-05T21:34:05.137Z,99.90
2019-03-05T21:36:33.454Z,99.90
2019-03-05T21:39:22.294Z,99.90
2019-03-05T21:41:50.591Z,99.90
2019-03-05T21:44:18.801Z,99.90
2019-03-05T21:46:46.989Z,99.90
2019-03-05T21:49:16.105Z,99.90
2019-03-05T21:51:45.447Z,99.90
2019-03-05T21:54:13.739Z,99.90
2019-03-05T21:56:41.893Z,99.90
2019-03-05T21:59:10.023Z,99.90
2019-03-05T22:01:41.039Z,99.90
2019-03-05T22:04:13.472Z,99.90
2019-03-05T22:06:41.730Z,99.90
2019-03-05T22:09:10.331Z,99.90
2019-03-05T22:11:38.627Z,99.90
2019-03-05T22:14:07.087Z,99.90
2019-03-05T22:16:35.719Z,99.90
2019-03-05T22:19:04.189Z,99.90
2019-03-05T22:21:35.058Z,99.90
2019-03-05T22:24:03.551Z,99.90
2019-03-05T22:26:31.674Z,99.90
2019-03-05T22:28:59.842Z,99.90
2019-03-05T22:31:29.151Z,99.90
2019-03-05T22:33:57.312Z,99.90
2019-03-05T22:36:25.858Z,99.90
2019-03-05T22:38:54.377Z,99.90
2019-03-05T22:41:22.853Z,99.90
2019-03-05T22:43:53.112Z,99.90
2019-03-05T22:46:21.223Z,99.90
2019-03-05T22:48:49.476Z,99.90
2019-03-05T22:51:17.796Z,99.90
2019-03-05T22:53:46.450Z,99.90
2019-03-05T22:56:15.074Z,99.90
2019-03-05T22:58:43.333Z,99.90
2019-03-05T23:01:17.470Z,99.90
2019-03-05T23:03:52.621Z,99.90
2019-03-05T23:06:21.236Z,99.90
2019-03-05T23:08:49.504Z,99.90
2019-03-05T23:11:17.824Z,99.90
2019-03-05T23:13:47.131Z,99.90
2019-03-05T23:16:15.434Z,99.90
2019-03-05T23:18:56.472Z,99.90
2019-03-05T23:21:27.570Z,99.90
2019-03-05T23:23:55.825Z,99.90
2019-03-05T23:26:24.173Z,99.90
2019-03-05T23:28:52.329Z,99.90
2019-03-05T23:31:20.931Z,99.90
2019-03-05T23:33:51.015Z,99.90
2019-03-05T23:36:20.550Z,99.90
2019-03-05T23:38:48.830Z,99.90
2019-03-05T23:41:20.723Z,99.90
2019-03-05T23:43:51.759Z,99.90
2019-03-05T23:46:22.555Z,99.90
2019-03-05T23:48:50.702Z,99.90
2019-03-05T23:51:21.297Z,99.90
2019-03-05T23:53:50.167Z,99.90
2019-03-05T23:56:18.700Z,99.90
2019-03-05T23:58:46.960Z,99.90
